D/T METAR WX W/DIR W/SPE G/SPE TEMP DEWP
16/01/19 02:50 EGXU 160250Z AUTO 23012KT 4300 // BKN018/// 08/07 Q1003 SW (230°) 13.8mph 8°C 7°C
16/01/19 01:50 EGXU 160150Z AUTO 23012KT 9999 // FEW021/// BKN036/// 09/06 Q1004 SW (230°) 13.8mph 9°C 6°C
16/01/19 00:50 EGXU 160050Z AUTO 22011KT 9999 // FEW023/// BKN038/// 09/06 Q1005 SW (220°) 12.7mph 9°C 6°C
15/01/19 23:50 EGXU 152350Z AUTO 21011KT 9999 // FEW023/// BKN032/// 09/06 Q1006 SSW (210°) 12.7mph 9°C 6°C
15/01/19 22:50 EGXU 152250Z AUTO 22009KT 9999 // SCT021/// BKN034/// 09/06 Q1007 SW (220°) 10.4mph 9°C 6°C
15/01/19 21:50 EGXU 152150Z AUTO 23011KT 9999 // BKN019/// BKN031/// 09/06 Q1008 SW (230°) 12.7mph 9°C 6°C
15/01/19 20:50 EGXU 152050Z AUTO 23011KT 9999 // FEW021/// BKN025/// 09/06 Q1008 SW (230°) 12.7mph 9°C 6°C
15/01/19 19:50 EGXU 151950Z AUTO 24016KT 7000 // SCT015/// BKN180/// 08/06 Q1009 WSW (240°) 18.4mph 8°C 6°C
15/01/19 18:50 EGXU 151850Z AUTO 25007KT 9999 // FEW034/// BKN190/// 09/05 Q1009 WSW (250°) 8.1mph 9°C 5°C
15/01/19 17:50 EGXU 151750Z AUTO 15003KT 9999 // SCT039/// BKN180/// 09/04 Q1010 SSE (150°) 3.5mph 9°C 4°C
15/01/19 16:50 EGXU 151650Z 27011KT 9999 FEW030 BKN200 09/04 Q1010 BLU NOSIG W (270°) 12.7mph 9°C 4°C
15/01/19 15:50 EGXU 151550Z 26015KT 9999 SCT021 BKN030 09/04 Q1011 WHT TEMPO 26017G27KT BLU W (260°) 17.3mph 9°C 4°C
15/01/19 14:50 EGXU 151450Z 26018KT 9999 FEW024 BKN032 10/04 Q1011 BLU NOSIG W (260°) 20.7mph 10°C 4°C
15/01/19 13:50 EGXU 151350Z 25019KT 9999 FEW022 BKN036 10/05 Q1012 BLU TEMPO SCT022 WHT WSW (250°) 21.9mph 10°C 5°C
15/01/19 13:39 EGXU 151339Z 25017KT 9999 FEW022 BKN035 10/05 Q1012 BLU TEMPO SCT023 WHT WSW (250°) 19.6mph 10°C 5°C
15/01/19 12:50 EGXU 151250Z 27008KT 9999 SCT022 SCT045 10/06 Q1012 WHT TEMPO 26015G25KT FEW022 BLU W (270°) 9.2mph 10°C 6°C
15/01/19 11:50 EGXU 151150Z 27013KT 9999 BKN023 10/06 Q1013 WHT TEMPO 27015G25KT SCT028 BLU W (270°) 15.0mph 10°C 6°C
15/01/19 11:33 EGXU 151133Z 27014KT 9999 BKN024 10/06 Q1013 WHT TEMPO 27015G25KT SCT028 BLU W (270°) 16.1mph 10°C 6°C
15/01/19 10:50 EGXU 151050Z 27009KT 9999 BKN026 BKN250 10/06 Q1014 BLU TEMPO 26015G25KT BLU W (270°) 10.4mph 10°C 6°C
15/01/19 09:50 EGXU 150950Z 25009KT 9999 SCT024 SCT140 BKN250 10/06 Q1014 WHT TEMPO 26015G25KT FEW024 BLU WSW (250°) 10.4mph 10°C 6°C
15/01/19 09:43 EGXU 150943Z 26009KT 9999 SCT024 BKN140 BKN250 09/06 Q1015 WHT TEMPO 26015G25KT FEW024 BLU W (260°) 10.4mph 9°C 6°C
15/01/19 08:50 EGXU 150850Z 25013KT 9999 FEW012 BKN150 BKN250 09/06 Q1014 BLU TEMPO 26015G25KT SCT020 WHT WSW (250°) 15.0mph 9°C 6°C
15/01/19 08:18 EGXU 150818Z 28011KT 9999 FEW012 SCT100 BKN140 09/06 Q1014 BLU TEMPO 27015G25KT SCT020 WHT W (280°) 12.7mph 9°C 6°C
15/01/19 06:50 EGXU 150650Z 27010KT 9999 BKN021 09/06 Q1014 WHT TEMPO BKN026 BLU W (270°) 11.5mph 9°C 6°C
15/01/19 05:50 EGXU 150550Z 26008KT 9999 SCT021 BKN250 09/06 Q1014 WHT W (260°) 9.2mph 9°C 6°C
15/01/19 04:50 EGXU 150450Z AUTO 25009KT 9999 // FEW019/// SCT032/// 08/06 Q1014 WSW (250°) 10.4mph 8°C 6°C
15/01/19 03:50 EGXU 150350Z AUTO 26010KT 9999 // FEW020/// BKN031/// 08/06 Q1015 W (260°) 11.5mph 8°C 6°C
15/01/19 02:50 EGXU 150250Z AUTO 27013KT 9999 // FEW024/// BKN030/// 09/06 Q1016 W (270°) 15.0mph 9°C 6°C
15/01/19 01:50 EGXU 150150Z AUTO 26010KT 9999 // BKN014/// SCT020/// 08/06 Q1016 W (260°) 11.5mph 8°C 6°C
15/01/19 00:50 EGXU 150050Z AUTO 23008KT 9999 // BKN013/// 08/06 Q1017 SW (230°) 9.2mph 8°C 6°C
14/01/19 23:50 EGXU 142350Z AUTO 26011KT 9999 // FEW050/// 06/05 Q1018 W (260°) 12.7mph 6°C 5°C
14/01/19 22:50 EGXU 142250Z AUTO 24010KT 9999 // FEW024/// 06/04 Q1018 WSW (240°) 11.5mph 6°C 4°C
14/01/19 21:50 EGXU 142150Z AUTO 25008KT 9999 // FEW028/// BKN050/// 06/04 Q1019 WSW (250°) 9.2mph 6°C 4°C
14/01/19 20:50 EGXU 142050Z AUTO 24009KT 9999 // SCT036/// BKN060/// 07/04 Q1019 WSW (240°) 10.4mph 7°C 4°C
14/01/19 19:50 EGXU 141950Z AUTO 25011KT 9999 // FEW030/// BKN037/// BKN070/// 07/04 Q1019 WSW (250°) 12.7mph 7°C 4°C
14/01/19 18:50 EGXU 141850Z AUTO 27009KT 9999 // FEW080/// 06/04 Q1019 W (270°) 10.4mph 6°C 4°C
14/01/19 17:50 EGXU 141750Z AUTO 24006KT 9999 // SCT049/// 06/03 Q1019 WSW (240°) 6.9mph 6°C 3°C
14/01/19 16:50 EGXU 141650Z 23006KT 9999 SCT044 06/03 Q1019 BLU NOSIG SW (230°) 6.9mph 6°C 3°C
14/01/19 15:50 EGXU 141550Z 19005KT 9999 FEW030 SCT042 07/03 Q1020 BLU NOSIG S (190°) 5.8mph 7°C 3°C
14/01/19 14:50 EGXU 141450Z 29003KT 9999 FEW016 BKN044 07/03 Q1019 BLU NOSIG WNW (290°) 3.5mph 7°C 3°C
14/01/19 13:50 EGXU 141350Z 34003KT 9999 FEW013 SCT034 BKN250 07/03 Q1019 BLU NOSIG NNW (340°) 3.5mph 7°C 3°C
14/01/19 12:50 EGXU 141250Z 32002KT 9999 FEW013 SCT027 BKN040 07/03 Q1020 BLU NOSIG NW (320°) 2.3mph 7°C 3°C
14/01/19 11:50 EGXU 141150Z 29003KT 9999 FEW013 BKN025 BKN044 07/03 Q1020 BLU TEMPO BKN023 WHT WNW (290°) 3.5mph 7°C 3°C
14/01/19 10:50 EGXU 141050Z 34006KT 9999 FEW010 BKN025 BKN048 06/04 Q1020 BLU TEMPO BKN023 WHT NNW (340°) 6.9mph 6°C 4°C
14/01/19 09:50 EGXU 140950Z 31004KT 9999 FEW008 SCT030 BKN048 06/04 Q1019 BLU TEMPO SCT019 WHT NW (310°) 4.6mph 6°C 4°C
14/01/19 08:53 EGXU 140853Z 34004KT 9999 BKN041 05/03 Q1018 BLU TEMPO SCT019 WHT NNW (340°) 4.6mph 5°C 3°C
14/01/19 07:50 EGXU 140750Z 35008KT 9999 BKN038 BKN170 05/02 Q1017 BLU TEMPO BKN021 WHT N (350°) 9.2mph 5°C 2°C
14/01/19 06:50 EGXU 140650Z 36009KT 9999 BKN037 BKN160 06/03 Q1016 BLU TEMPO SCT024 WHT N (360°) 10.4mph 6°C 3°C
14/01/19 05:50 EGXU 140550Z AUTO 32011KT 9999 // FEW038/// OVC170/// 07/02 Q1016 NW (320°) 12.7mph 7°C 2°C
14/01/19 04:50 EGXU 140450Z AUTO 29011KT 9999 // BKN170/// 06/02 Q1015 WNW (290°) 12.7mph 6°C 2°C
14/01/19 03:50 EGXU 140350Z AUTO 28010KT 9999 // NCD 06/02 Q1014 W (280°) 11.5mph 6°C 2°C
14/01/19 02:50 EGXU 140250Z AUTO 29009KT 9999 // NCD 06/02 Q1014 WNW (290°) 10.4mph 6°C 2°C
14/01/19 01:50 EGXU 140150Z AUTO 30009KT 9999 // NCD 07/02 Q1013 WNW (300°) 10.4mph 7°C 2°C
14/01/19 00:50 EGXU 140050Z AUTO 30010KT 9999 // NCD 07/03 Q1012 WNW (300°) 11.5mph 7°C 3°C
13/01/19 23:50 EGXU 132350Z AUTO 30009KT 9999 // NCD 07/02 Q1011 WNW (300°) 10.4mph 7°C 2°C
13/01/19 22:50 EGXU 132250Z AUTO 30013KT 9999 // NCD 07/02 Q1011 WNW (300°) 15.0mph 7°C 2°C
13/01/19 21:50 EGXU 132150Z AUTO 30012KT 9999 // SCT032/// 08/03 Q1010 WNW (300°) 13.8mph 8°C 3°C
13/01/19 20:50 EGXU 132050Z AUTO 30016KT 9999 // BKN035/// 08/02 Q1009 WNW (300°) 18.4mph 8°C 2°C
13/01/19 19:50 EGXU 131950Z AUTO 31016KT 9999 // BKN036/// 08/02 Q1009 NW (310°) 18.4mph 8°C 2°C
13/01/19 18:50 EGXU 131850Z AUTO 30017KT 9999 // BKN036/// 09/03 Q1008 WNW (300°) 19.6mph 9°C 3°C
13/01/19 17:50 EGXU 131750Z AUTO 30012KT 9999 // BKN037/// BKN045/// 09/03 Q1008 WNW (300°) 13.8mph 9°C 3°C
13/01/19 16:50 EGXU 131650Z AUTO 29010KT 9999 // BKN039/// BKN050/// 09/03 Q1007 WNW (290°) 11.5mph 9°C 3°C
13/01/19 15:50 EGXU 131550Z AUTO 31018KT 9999 // FEW050/// 10/03 Q1007 NW (310°) 20.7mph 10°C 3°C
13/01/19 14:50 EGXU 131450Z AUTO 32019G29KT 9999 // SCT031/// BKN044/// BKN050/// 10/06 Q1006 NW (320°) 21.9mph 33.4mph 10°C 6°C
13/01/19 13:50 EGXU 131350Z AUTO 30025G36KT 9999 // BKN040/// 12/05 Q1006 WNW (300°) 28.8mph 41.4mph 12°C 5°C
13/01/19 12:50 EGXU 131250Z AUTO 30023G37KT 9999 // SCT034/// SCT050/// 12/06 Q1006 WNW (300°) 26.5mph 42.6mph 12°C 6°C
13/01/19 11:50 EGXU 131150Z AUTO 29023KT 9999 // SCT027/// 11/07 Q1006 WNW (290°) 26.5mph 11°C 7°C
13/01/19 10:50 EGXU 131050Z AUTO 29013KT 9999 // FEW024/// 11/07 Q1006 WNW (290°) 15.0mph 11°C 7°C
13/01/19 09:50 EGXU 130950Z AUTO 27014KT 9999 // SCT043/// 10/07 Q1007 W (270°) 16.1mph 10°C 7°C
13/01/19 08:50 EGXU 130850Z AUTO 27014G25KT 9999 // BKN020/// SCT041/// 10/07 Q1008 W (270°) 16.1mph 28.8mph 10°C 7°C
13/01/19 07:50 EGXU 130750Z AUTO 28013KT 9999 // BKN018/// 10/07 Q1009 W (280°) 15.0mph 10°C 7°C
13/01/19 06:50 EGXU 130650Z AUTO 28015KT 9999 // BKN016/// SCT180/// 10/07 Q1009 W (280°) 17.3mph 10°C 7°C
13/01/19 05:50 EGXU 130550Z AUTO 28020KT 9999 // SCT017/// BKN160/// 10/07 Q1009 W (280°) 23.0mph 10°C 7°C
13/01/19 04:50 EGXU 130450Z AUTO 29021KT 9999 // SCT017/// BKN140/// 10/07 Q1010 WNW (290°) 24.2mph 10°C 7°C
13/01/19 03:50 EGXU 130350Z AUTO 28020G31KT 9999 // BKN130/// 10/07 Q1010 W (280°) 23.0mph 35.7mph 10°C 7°C
13/01/19 02:50 EGXU 130250Z AUTO 28013KT 9999 // BKN140/// 11/07 Q1011 W (280°) 15.0mph 11°C 7°C
13/01/19 01:50 EGXU 130150Z AUTO 29015KT 9999 // FEW020/// BKN110/// 11/07 Q1011 WNW (290°) 17.3mph 11°C 7°C
13/01/19 00:50 EGXU 130050Z AUTO 28016KT 9999 // FEW020/// BKN100/// 11/08 Q1012 W (280°) 18.4mph 11°C 8°C
12/01/19 23:50 EGXU 122350Z AUTO 28012KT 9999 // SCT020/// BKN034/// BKN090/// 11/08 Q1013 W (280°) 13.8mph 11°C 8°C
12/01/19 22:50 EGXU 122250Z AUTO 29014KT 9999 // FEW019/// SCT110/// 11/08 Q1013 WNW (290°) 16.1mph 11°C 8°C
12/01/19 21:50 EGXU 122150Z AUTO /////KT 9999 // BKN110/// 11/08 Q1014 N (0°) 11°C 8°C
12/01/19 20:50 EGXU 122050Z AUTO 28013KT 9999 // FEW019/// BKN029/// BKN110/// 11/08 Q1014 W (280°) 15.0mph 11°C 8°C
12/01/19 19:50 EGXU 121950Z AUTO 28009KT 9999 // FEW019/// BKN023/// 10/08 Q1014 W (280°) 10.4mph 10°C 8°C
12/01/19 18:50 EGXU 121850Z AUTO /////KT 9999 // BKN017/// 10/08 Q1014 N (0°) 10°C 8°C
12/01/19 17:50 EGXU 121750Z AUTO /////KT 9999 // BKN017/// BKN033/// 10/07 Q1014 N (0°) 10°C 7°C
12/01/19 16:50 EGXU 121650Z AUTO 27010KT 9999 // SCT018/// BKN039/// BKN050/// 09/07 Q1014 W (270°) 11.5mph 9°C 7°C
12/01/19 15:50 EGXU 121550Z AUTO 28013KT 9999 // SCT018/// BKN050/// 09/06 Q1015 W (280°) 15.0mph 9°C 6°C
12/01/19 14:50 EGXU 121450Z AUTO 28011G22KT 9999 // FEW019/// SCT032/// BKN050/// 09/06 Q1015 W (280°) 12.7mph 25.3mph 9°C 6°C
12/01/19 13:50 EGXU 121350Z AUTO 27013G24KT 9999 // OVC070/// 09/06 Q1016 W (270°) 15.0mph 27.6mph 9°C 6°C
12/01/19 12:50 EGXU 121250Z AUTO 27014G25KT 9999 // BKN080/// 09/06 Q1016 W (270°) 16.1mph 28.8mph 9°C 6°C
12/01/19 11:50 EGXU 121150Z AUTO 26011KT 9999 // OVC070/// 09/06 Q1017 W (260°) 12.7mph 9°C 6°C
12/01/19 10:50 EGXU 121050Z AUTO 27011KT 9999 // BKN080/// 09/06 Q1018 W (270°) 12.7mph 9°C 6°C
12/01/19 09:50 EGXU 120950Z AUTO 27012KT 9999 // FEW034/// BKN110/// 09/06 Q1018 W (270°) 13.8mph 9°C 6°C
12/01/19 08:50 EGXU 120850Z AUTO 27013KT 9999 // BKN100/// 09/05 Q1018 W (270°) 15.0mph 9°C 5°C
12/01/19 08:30 EGXU 120830Z 28011KT 9999 BKN100 09/05 Q1018 BLU W (280°) 12.7mph 9°C 5°C
12/01/19 07:50 EGXU 120750Z AUTO 28011KT 9999 // BKN028/// BKN050/// 09/06 Q1018 W (280°) 12.7mph 9°C 6°C
12/01/19 06:50 EGXU 120650Z AUTO 28011KT 9999 // SCT050/// BKN160/// 09/06 Q1018 W (280°) 12.7mph 9°C 6°C
12/01/19 05:50 EGXU 120550Z AUTO 27012KT 9999 // FEW026/// BKN160/// 09/07 Q1018 W (270°) 13.8mph 9°C 7°C
12/01/19 04:50 EGXU 120450Z AUTO 25011KT 6000 // FEW010/// BKN019/// 08/08 Q1019 WSW (250°) 12.7mph 8°C 8°C
12/01/19 03:50 EGXU 120350Z AUTO 25007KT 9999 // FEW014/// BKN020/// BKN025/// 08/07 Q1020 WSW (250°) 8.1mph 8°C 7°C
12/01/19 02:50 EGXU 120250Z AUTO 26007KT 9999 // SCT014/// BKN070/// 09/07 Q1021 W (260°) 8.1mph 9°C 7°C
12/01/19 01:50 EGXU 120150Z AUTO 27012KT 9999 // BKN013/// 09/07 Q1022 W (270°) 13.8mph 9°C 7°C
12/01/19 00:50 EGXU 120050Z AUTO 27010KT 9999 // BKN019/// BKN027/// 09/06 Q1023 W (270°) 11.5mph 9°C 6°C
11/01/19 23:50 EGXU 112350Z AUTO 26010KT 9999 // BKN020/// SCT029/// 08/05 Q1024 W (260°) 11.5mph 8°C 5°C
11/01/19 22:50 EGXU 112250Z AUTO 24006KT 9999 // BKN028/// BKN034/// 08/05 Q1024 WSW (240°) 6.9mph 8°C 5°C
11/01/19 21:50 EGXU 112150Z AUTO 24009KT 9999 // OVC034/// 08/06 Q1026 WSW (240°) 10.4mph 8°C 6°C
11/01/19 20:50 EGXU 112050Z AUTO 25008KT 9999 // OVC030/// 08/06 Q1026 WSW (250°) 9.2mph 8°C 6°C
11/01/19 19:50 EGXU 111950Z AUTO 24008KT 9999 // OVC032/// 07/05 Q1027 WSW (240°) 9.2mph 7°C 5°C
11/01/19 18:50 EGXU 111850Z AUTO 26009KT 9999 // OVC034/// 07/04 Q1027 W (260°) 10.4mph 7°C 4°C
11/01/19 17:50 EGXU 111750Z AUTO 23005KT 9999 // OVC035/// 07/04 Q1028 SW (230°) 5.8mph 7°C 4°C
11/01/19 16:50 EGXU 111650Z AUTO 23004KT 9999 // OVC032/// 07/03 Q1028 SW (230°) 4.6mph 7°C 3°C
11/01/19 15:50 EGXU 111550Z 28004KT 9999 OVC031 07/03 Q1029 BLU NOSIG W (280°) 4.6mph 7°C 3°C
11/01/19 14:52 EGXU 111452Z 30007KT 9999 OVC028 08/04 Q1029 BLU NOSIG WNW (300°) 8.1mph 8°C 4°C
11/01/19 13:50 EGXU 111350Z 29008KT 9999 FEW015 OVC034 08/04 Q1029 BLU NOSIG WNW (290°) 9.2mph 8°C 4°C
11/01/19 12:50 EGXU 111250Z 29006KT 9999 BKN033 08/05 Q1029 BLU NOSIG WNW (290°) 6.9mph 8°C 5°C
11/01/19 11:50 EGXU 111150Z 30005KT 9999 FEW020 BKN033 08/05 Q1030 BLU NOSIG WNW (300°) 5.8mph 8°C 5°C
11/01/19 10:50 EGXU 111050Z 33003KT 9999 BKN034 06/04 Q1030 BLU NOSIG NNW (330°) 3.5mph 6°C 4°C
11/01/19 09:50 EGXU 110950Z 32003KT 9999 BKN035 04/03 Q1030 BLU NOSIG NW (320°) 3.5mph 4°C 3°C
11/01/19 08:50 EGXU 110850Z 29002KT 9999 BKN038 03/02 Q1030 BLU NOSIG WNW (290°) 2.3mph 3°C 2°C
11/01/19 07:50 EGXU 110750Z 31003KT 9999 FEW040 BKN250 02/01 Q1030 BLU NOSIG NW (310°) 3.5mph 2°C 1°C
11/01/19 06:50 EGXU 110650Z 31005KT CAVOK 02/01 Q1029 BLU NOSIG NW (310°) 5.8mph 2°C 1°C
11/01/19 05:50 EGXU 110550Z AUTO 30006KT 9999 // FEW049/// 04/03 Q1029 WNW (300°) 6.9mph 4°C 3°C
11/01/19 04:50 EGXU 110450Z AUTO 32003KT 9999 // OVC048/// 04/02 Q1029 NW (320°) 3.5mph 4°C 2°C
11/01/19 03:50 EGXU 110350Z AUTO 31005KT 9999 // BKN050/// 06/03 Q1029 NW (310°) 5.8mph 6°C 3°C
11/01/19 02:50 EGXU 110250Z AUTO 32006KT 9999 // OVC050/// 05/04 Q1029 NW (320°) 6.9mph 5°C 4°C
11/01/19 01:50 EGXU 110150Z AUTO 33005KT 9999 // OVC050/// 06/04 Q1029 NNW (330°) 5.8mph 6°C 4°C
11/01/19 00:50 EGXU 110050Z AUTO 31005KT 9999 // OVC050/// 06/04 Q1029 NW (310°) 5.8mph 6°C 4°C
10/01/19 23:50 EGXU 102350Z AUTO 33005KT 9999 // OVC050/// 07/04 Q1029 NNW (330°) 5.8mph 7°C 4°C
10/01/19 22:50 EGXU 102250Z AUTO 34009KT 9999 // OVC050/// 07/04 Q1030 NNW (340°) 10.4mph 7°C 4°C
10/01/19 21:50 EGXU 102150Z AUTO 33009KT 9999 // OVC050/// 07/05 Q1029 NNW (330°) 10.4mph 7°C 5°C
10/01/19 20:50 EGXU 102050Z AUTO 31010KT 9999 // OVC050/// 08/04 Q1029 NW (310°) 11.5mph 8°C 4°C
10/01/19 19:50 EGXU 101950Z AUTO /////KT 9999 // OVC050/// 08/04 Q1029 N (0°) 8°C 4°C
10/01/19 18:50 EGXU 101850Z AUTO /////KT 9999 // OVC050/// 08/04 Q1029 N (0°) 8°C 4°C
10/01/19 17:50 EGXU 101750Z AUTO 32010KT 9999 // BKN050/// 08/05 Q1029 NW (320°) 11.5mph 8°C 5°C
10/01/19 16:50 EGXU 101650Z 31010KT CAVOK 09/05 Q1028 BLU NOSIG NW (310°) 11.5mph 9°C 5°C
10/01/19 15:50 EGXU 101550Z 31005KT CAVOK 08/06 Q1028 BLU NOSIG NW (310°) 5.8mph 8°C 6°C
10/01/19 14:50 EGXU 101450Z 32004KT CAVOK 07/06 Q1028 BLU NOSIG NW (320°) 4.6mph 7°C 6°C
10/01/19 13:50 EGXU 101350Z 30003KT CAVOK 07/06 Q1028 BLU NOSIG WNW (300°) 3.5mph 7°C 6°C
10/01/19 12:50 EGXU 101250Z 32002KT CAVOK 07/05 Q1029 BLU NOSIG NW (320°) 2.3mph 7°C 5°C
10/01/19 11:50 EGXU 101150Z 24001KT 9999 FEW006 SCT007 BKN050 05/04 Q1029 GRN TEMPO FEW020 BKN045 BLU WSW (240°) 1.2mph 5°C 4°C
10/01/19 11:21 EGXU 101121Z 25001KT 9999 BKN008 BKN050 05/04 Q1029 GRN TEMPO FEW011 BKN045 BLU WSW (250°) 1.2mph 5°C 4°C
10/01/19 09:50 EGXU 100950Z 01002KT 9999 BKN017 BKN031 BKN070 02/02 Q1030 WHT TEMPO 4000 -RA BKN014 GRN N (10°) 2.3mph 2°C 2°C
10/01/19 09:28 EGXU 100928Z 36001KT 9999 FEW014 BKN015 BKN060 02/01 Q1030 WHT TEMPO 6000 -RA BKN014 GRN N (360°) 1.2mph 2°C 1°C
10/01/19 09:10 EGXU 100910Z 03001KT 9999 SCT014 BKN023 BKN060 01/01 Q1030 GRN TEMPO 6000 -RA GRN NNE (30°) 1.2mph 1°C 1°C